sensor_id;sensor_type;location;lat;lon;timestamp;P1;durP1;ratioP1;P2;durP2;ratioP2
21591;SDS011;10958;50.892;3.992;2023-03-03T00:02:27;28.05;;;15.32;;
21591;SDS011;10958;50.892;3.992;2023-03-03T00:04:52;23.58;;;14.23;;
21591;SDS011;10958;50.892;3.992;2023-03-03T00:07:19;27.20;;;14.30;;
21591;SDS011;10958;50.892;3.992;2023-03-03T00:09:47;27.63;;;15.63;;
21591;SDS011;10958;50.892;3.992;2023-03-03T00:12:23;25.90;;;13.95;;
21591;SDS011;10958;50.892;3.992;2023-03-03T00:14:51;28.40;;;14.68;;
21591;SDS011;10958;50.892;3.992;2023-03-03T00:17:25;26.30;;;14.10;;
21591;SDS011;10958;50.892;3.992;2023-03-03T00:19:52;25.80;;;14.30;;
21591;SDS011;10958;50.892;3.992;2023-03-03T00:22:29;28.30;;;15.57;;
21591;SDS011;10958;50.892;3.992;2023-03-03T00:27:47;28.17;;;15.15;;
21591;SDS011;10958;50.892;3.992;2023-03-03T00:30:16;30.58;;;16.02;;
21591;SDS011;10958;50.892;3.992;2023-03-03T00:32:54;31.10;;;15.25;;
21591;SDS011;10958;50.892;3.992;2023-03-03T00:38:11;30.02;;;16.42;;
21591;SDS011;10958;50.892;3.992;2023-03-03T00:40:41;31.57;;;15.53;;
21591;SDS011;10958;50.892;3.992;2023-03-03T00:43:13;27.35;;;14.65;;
21591;SDS011;10958;50.892;3.992;2023-03-03T00:45:52;28.13;;;14.77;;
21591;SDS011;10958;50.892;3.992;2023-03-03T00:51:01;27.50;;;14.10;;
21591;SDS011;10958;50.892;3.992;2023-03-03T00:53:51;28.17;;;15.27;;
21591;SDS011;10958;50.892;3.992;2023-03-03T00:56:17;32.58;;;15.13;;
21591;SDS011;10958;50.892;3.992;2023-03-03T00:58:44;28.70;;;15.35;;
21591;SDS011;10958;50.892;3.992;2023-03-03T01:01:12;32.25;;;15.18;;
21591;SDS011;10958;50.892;3.992;2023-03-03T01:03:40;30.33;;;14.85;;
21591;SDS011;10958;50.892;3.992;2023-03-03T01:06:10;28.85;;;14.93;;
21591;SDS011;10958;50.892;3.992;2023-03-03T01:11:03;29.00;;;14.43;;
21591;SDS011;10958;50.892;3.992;2023-03-03T01:13:33;29.30;;;15.07;;
21591;SDS011;10958;50.892;3.992;2023-03-03T01:16:03;28.05;;;14.93;;
21591;SDS011;10958;50.892;3.992;2023-03-03T01:18:29;32.65;;;15.52;;
21591;SDS011;10958;50.892;3.992;2023-03-03T01:20:55;31.45;;;15.23;;
21591;SDS011;10958;50.892;3.992;2023-03-03T01:23:23;28.13;;;14.40;;
21591;SDS011;10958;50.892;3.992;2023-03-03T01:25:49;31.00;;;14.85;;
21591;SDS011;10958;50.892;3.992;2023-03-03T01:28:17;28.63;;;14.65;;
21591;SDS011;10958;50.892;3.992;2023-03-03T01:30:43;27.65;;;14.77;;
21591;SDS011;10958;50.892;3.992;2023-03-03T01:33:09;27.75;;;14.10;;
21591;SDS011;10958;50.892;3.992;2023-03-03T01:35:41;32.85;;;15.50;;
21591;SDS011;10958;50.892;3.992;2023-03-03T01:38:08;32.10;;;15.90;;
21591;SDS011;10958;50.892;3.992;2023-03-03T01:40:34;29.80;;;15.48;;
21591;SDS011;10958;50.892;3.992;2023-03-03T01:42:59;33.08;;;16.17;;
21591;SDS011;10958;50.892;3.992;2023-03-03T01:45:29;30.63;;;15.40;;
21591;SDS011;10958;50.892;3.992;2023-03-03T01:50:30;31.42;;;14.05;;
21591;SDS011;10958;50.892;3.992;2023-03-03T01:53:12;32.10;;;15.15;;
21591;SDS011;10958;50.892;3.992;2023-03-03T01:55:48;33.13;;;16.50;;
21591;SDS011;10958;50.892;3.992;2023-03-03T01:58:25;31.30;;;15.48;;
21591;SDS011;10958;50.892;3.992;2023-03-03T02:01:06;29.52;;;15.27;;
21591;SDS011;10958;50.892;3.992;2023-03-03T02:03:38;31.20;;;15.00;;
21591;SDS011;10958;50.892;3.992;2023-03-03T02:06:07;28.65;;;14.90;;
21591;SDS011;10958;50.892;3.992;2023-03-03T02:08:38;34.40;;;15.88;;
21591;SDS011;10958;50.892;3.992;2023-03-03T02:11:41;30.17;;;13.95;;
21591;SDS011;10958;50.892;3.992;2023-03-03T02:14:10;31.05;;;15.82;;
21591;SDS011;10958;50.892;3.992;2023-03-03T02:16:38;28.15;;;15.80;;
21591;SDS011;10958;50.892;3.992;2023-03-03T02:19:05;32.75;;;16.27;;
21591;SDS011;10958;50.892;3.992;2023-03-03T02:21:42;31.02;;;15.63;;
21591;SDS011;10958;50.892;3.992;2023-03-03T02:24:10;31.23;;;15.88;;
21591;SDS011;10958;50.892;3.992;2023-03-03T02:26:47;31.17;;;16.45;;
21591;SDS011;10958;50.892;3.992;2023-03-03T02:29:13;33.38;;;16.15;;
21591;SDS011;10958;50.892;3.992;2023-03-03T02:31:39;31.17;;;16.05;;
21591;SDS011;10958;50.892;3.992;2023-03-03T02:34:05;34.17;;;15.80;;
21591;SDS011;10958;50.892;3.992;2023-03-03T02:36:32;36.33;;;16.65;;
21591;SDS011;10958;50.892;3.992;2023-03-03T02:39:09;35.28;;;16.80;;
21591;SDS011;10958;50.892;3.992;2023-03-03T02:44:25;38.08;;;17.35;;
21591;SDS011;10958;50.892;3.992;2023-03-03T02:46:54;34.20;;;17.25;;
21591;SDS011;10958;50.892;3.992;2023-03-03T02:49:22;38.75;;;16.80;;
21591;SDS011;10958;50.892;3.992;2023-03-03T02:51:57;36.28;;;17.30;;
21591;SDS011;10958;50.892;3.992;2023-03-03T02:54:26;31.25;;;16.48;;
21591;SDS011;10958;50.892;3.992;2023-03-03T02:56:54;29.48;;;13.35;;
21591;SDS011;10958;50.892;3.992;2023-03-03T02:59:21;31.83;;;17.02;;
21591;SDS011;10958;50.892;3.992;2023-03-03T03:01:46;37.55;;;17.85;;
21591;SDS011;10958;50.892;3.992;2023-03-03T03:04:20;36.28;;;17.35;;
21591;SDS011;10958;50.892;3.992;2023-03-03T03:06:47;37.85;;;18.23;;
21591;SDS011;10958;50.892;3.992;2023-03-03T03:09:13;37.33;;;17.75;;
21591;SDS011;10958;50.892;3.992;2023-03-03T03:11:43;38.67;;;18.08;;
21591;SDS011;10958;50.892;3.992;2023-03-03T03:14:09;38.90;;;18.65;;
21591;SDS011;10958;50.892;3.992;2023-03-03T03:16:37;34.08;;;17.00;;
21591;SDS011;10958;50.892;3.992;2023-03-03T03:19:03;35.88;;;17.30;;
21591;SDS011;10958;50.892;3.992;2023-03-03T03:21:30;38.00;;;17.85;;
21591;SDS011;10958;50.892;3.992;2023-03-03T03:23:58;42.58;;;19.48;;
21591;SDS011;10958;50.892;3.992;2023-03-03T03:26:24;37.30;;;18.58;;
21591;SDS011;10958;50.892;3.992;2023-03-03T03:28:53;40.95;;;19.00;;
21591;SDS011;10958;50.892;3.992;2023-03-03T03:31:21;42.03;;;19.35;;
21591;SDS011;10958;50.892;3.992;2023-03-03T03:33:47;39.60;;;19.33;;
21591;SDS011;10958;50.892;3.992;2023-03-03T03:36:13;39.80;;;19.08;;
21591;SDS011;10958;50.892;3.992;2023-03-03T03:38:41;42.20;;;19.38;;
21591;SDS011;10958;50.892;3.992;2023-03-03T03:41:10;41.80;;;19.27;;
21591;SDS011;10958;50.892;3.992;2023-03-03T03:43:37;39.65;;;19.58;;
21591;SDS011;10958;50.892;3.992;2023-03-03T03:46:03;43.47;;;19.70;;
21591;SDS011;10958;50.892;3.992;2023-03-03T03:48:29;40.75;;;20.02;;
21591;SDS011;10958;50.892;3.992;2023-03-03T03:50:55;38.78;;;19.30;;
21591;SDS011;10958;50.892;3.992;2023-03-03T03:53:21;42.45;;;19.73;;
21591;SDS011;10958;50.892;3.992;2023-03-03T03:55:47;41.72;;;19.50;;
21591;SDS011;10958;50.892;3.992;2023-03-03T03:58:15;42.25;;;20.63;;
21591;SDS011;10958;50.892;3.992;2023-03-03T04:00:43;41.63;;;20.10;;
21591;SDS011;10958;50.892;3.992;2023-03-03T04:03:10;43.53;;;19.65;;
21591;SDS011;10958;50.892;3.992;2023-03-03T04:05:38;44.23;;;20.73;;
21591;SDS011;10958;50.892;3.992;2023-03-03T04:08:04;46.15;;;20.98;;
21591;SDS011;10958;50.892;3.992;2023-03-03T04:10:30;45.97;;;21.05;;
21591;SDS011;10958;50.892;3.992;2023-03-03T04:12:56;46.72;;;21.27;;
21591;SDS011;10958;50.892;3.992;2023-03-03T04:15:22;47.88;;;21.75;;
21591;SDS011;10958;50.892;3.992;2023-03-03T04:17:48;45.65;;;20.63;;
21591;SDS011;10958;50.892;3.992;2023-03-03T04:20:14;41.08;;;20.52;;
21591;SDS011;10958;50.892;3.992;2023-03-03T04:22:42;40.38;;;20.38;;
21591;SDS011;10958;50.892;3.992;2023-03-03T04:25:10;43.15;;;21.45;;
21591;SDS011;10958;50.892;3.992;2023-03-03T04:27:38;41.50;;;20.40;;
21591;SDS011;10958;50.892;3.992;2023-03-03T04:30:04;44.45;;;21.83;;
21591;SDS011;10958;50.892;3.992;2023-03-03T04:32:31;48.10;;;21.05;;
21591;SDS011;10958;50.892;3.992;2023-03-03T04:34:58;45.65;;;20.95;;
21591;SDS011;10958;50.892;3.992;2023-03-03T04:37:24;42.10;;;20.77;;
21591;SDS011;10958;50.892;3.992;2023-03-03T04:39:49;43.47;;;20.75;;
21591;SDS011;10958;50.892;3.992;2023-03-03T04:42:18;46.80;;;21.05;;
21591;SDS011;10958;50.892;3.992;2023-03-03T04:44:43;43.80;;;20.70;;
21591;SDS011;10958;50.892;3.992;2023-03-03T04:47:09;44.00;;;20.90;;
21591;SDS011;10958;50.892;3.992;2023-03-03T04:49:37;49.08;;;21.27;;
21591;SDS011;10958;50.892;3.992;2023-03-03T04:52:03;41.15;;;20.35;;
21591;SDS011;10958;50.892;3.992;2023-03-03T04:54:29;40.17;;;19.45;;
21591;SDS011;10958;50.892;3.992;2023-03-03T04:56:55;47.97;;;20.45;;
21591;SDS011;10958;50.892;3.992;2023-03-03T04:59:21;43.60;;;21.15;;
21591;SDS011;10958;50.892;3.992;2023-03-03T05:01:50;36.92;;;18.85;;
21591;SDS011;10958;50.892;3.992;2023-03-03T05:04:15;40.63;;;19.95;;
21591;SDS011;10958;50.892;3.992;2023-03-03T05:06:41;40.53;;;18.98;;
21591;SDS011;10958;50.892;3.992;2023-03-03T05:09:07;41.17;;;20.58;;
21591;SDS011;10958;50.892;3.992;2023-03-03T05:11:33;38.05;;;20.02;;
21591;SDS011;10958;50.892;3.992;2023-03-03T05:13:59;37.88;;;18.52;;
21591;SDS011;10958;50.892;3.992;2023-03-03T05:16:27;38.03;;;19.02;;
21591;SDS011;10958;50.892;3.992;2023-03-03T05:18:53;41.15;;;19.70;;
21591;SDS011;10958;50.892;3.992;2023-03-03T05:21:18;38.47;;;19.90;;
21591;SDS011;10958;50.892;3.992;2023-03-03T05:23:44;39.20;;;19.77;;
21591;SDS011;10958;50.892;3.992;2023-03-03T05:26:10;39.45;;;20.35;;
21591;SDS011;10958;50.892;3.992;2023-03-03T05:28:36;44.15;;;21.88;;
21591;SDS011;10958;50.892;3.992;2023-03-03T05:31:01;42.67;;;22.27;;
21591;SDS011;10958;50.892;3.992;2023-03-03T05:33:27;44.30;;;21.85;;
21591;SDS011;10958;50.892;3.992;2023-03-03T05:35:53;45.47;;;23.30;;
21591;SDS011;10958;50.892;3.992;2023-03-03T05:38:22;50.67;;;24.23;;
21591;SDS011;10958;50.892;3.992;2023-03-03T05:40:51;69.63;;;30.40;;
21591;SDS011;10958;50.892;3.992;2023-03-03T05:43:18;61.03;;;28.08;;
21591;SDS011;10958;50.892;3.992;2023-03-03T05:45:44;66.35;;;29.98;;
21591;SDS011;10958;50.892;3.992;2023-03-03T05:48:10;92.00;;;37.85;;
21591;SDS011;10958;50.892;3.992;2023-03-03T05:50:40;80.13;;;34.83;;
21591;SDS011;10958;50.892;3.992;2023-03-03T05:53:06;78.05;;;34.70;;
21591;SDS011;10958;50.892;3.992;2023-03-03T05:55:32;65.97;;;30.60;;
21591;SDS011;10958;50.892;3.992;2023-03-03T05:57:58;58.78;;;28.52;;
21591;SDS011;10958;50.892;3.992;2023-03-03T06:00:26;41.27;;;21.20;;
21591;SDS011;10958;50.892;3.992;2023-03-03T06:02:52;58.60;;;28.08;;
21591;SDS011;10958;50.892;3.992;2023-03-03T06:05:19;55.40;;;26.33;;
21591;SDS011;10958;50.892;3.992;2023-03-03T06:07:45;54.33;;;25.73;;
21591;SDS011;10958;50.892;3.992;2023-03-03T06:10:11;49.53;;;24.02;;
21591;SDS011;10958;50.892;3.992;2023-03-03T06:12:37;52.50;;;25.15;;
21591;SDS011;10958;50.892;3.992;2023-03-03T06:15:05;47.38;;;25.05;;
21591;SDS011;10958;50.892;3.992;2023-03-03T06:17:32;50.30;;;22.02;;
21591;SDS011;10958;50.892;3.992;2023-03-03T06:19:57;52.83;;;22.83;;
21591;SDS011;10958;50.892;3.992;2023-03-03T06:22:23;52.20;;;24.15;;
21591;SDS011;10958;50.892;3.992;2023-03-03T06:24:49;50.88;;;24.08;;
21591;SDS011;10958;50.892;3.992;2023-03-03T06:27:16;56.67;;;25.15;;
21591;SDS011;10958;50.892;3.992;2023-03-03T06:29:42;51.58;;;24.13;;
21591;SDS011;10958;50.892;3.992;2023-03-03T06:32:09;50.10;;;24.27;;
21591;SDS011;10958;50.892;3.992;2023-03-03T06:34:35;52.85;;;21.67;;
21591;SDS011;10958;50.892;3.992;2023-03-03T06:37:03;44.47;;;20.83;;
21591;SDS011;10958;50.892;3.992;2023-03-03T06:39:29;46.58;;;20.95;;
21591;SDS011;10958;50.892;3.992;2023-03-03T06:41:55;44.63;;;20.15;;
21591;SDS011;10958;50.892;3.992;2023-03-03T06:44:23;52.72;;;22.73;;
21591;SDS011;10958;50.892;3.992;2023-03-03T06:46:48;48.22;;;21.83;;
21591;SDS011;10958;50.892;3.992;2023-03-03T06:49:14;45.92;;;21.35;;
21591;SDS011;10958;50.892;3.992;2023-03-03T06:51:42;51.78;;;21.80;;
21591;SDS011;10958;50.892;3.992;2023-03-03T06:56:36;48.10;;;23.05;;
21591;SDS011;10958;50.892;3.992;2023-03-03T06:59:13;44.95;;;21.33;;
21591;SDS011;10958;50.892;3.992;2023-03-03T07:01:41;46.38;;;21.17;;
21591;SDS011;10958;50.892;3.992;2023-03-03T07:04:16;46.90;;;22.20;;
21591;SDS011;10958;50.892;3.992;2023-03-03T07:06:50;53.30;;;22.70;;
21591;SDS011;10958;50.892;3.992;2023-03-03T07:09:25;46.42;;;20.15;;
21591;SDS011;10958;50.892;3.992;2023-03-03T07:12:28;47.50;;;22.48;;
21591;SDS011;10958;50.892;3.992;2023-03-03T07:14:49;47.00;;;20.30;;
21591;SDS011;10958;50.892;3.992;2023-03-03T07:17:47;44.20;;;19.73;;
21591;SDS011;10958;50.892;3.992;2023-03-03T07:20:19;42.08;;;20.17;;
21591;SDS011;10958;50.892;3.992;2023-03-03T07:22:47;44.20;;;19.30;;
21591;SDS011;10958;50.892;3.992;2023-03-03T07:25:18;45.88;;;19.75;;
21591;SDS011;10958;50.892;3.992;2023-03-03T07:28:00;44.75;;;19.45;;
21591;SDS011;10958;50.892;3.992;2023-03-03T07:30:40;42.38;;;19.42;;
21591;SDS011;10958;50.892;3.992;2023-03-03T07:33:07;44.95;;;19.42;;
21591;SDS011;10958;50.892;3.992;2023-03-03T07:35:49;39.88;;;18.33;;
21591;SDS011;10958;50.892;3.992;2023-03-03T07:38:16;40.17;;;19.38;;
21591;SDS011;10958;50.892;3.992;2023-03-03T07:40:47;40.88;;;18.75;;
21591;SDS011;10958;50.892;3.992;2023-03-03T07:43:22;42.15;;;20.13;;
21591;SDS011;10958;50.892;3.992;2023-03-03T07:45:55;43.78;;;18.65;;
21591;SDS011;10958;50.892;3.992;2023-03-03T07:48:46;42.92;;;20.20;;
21591;SDS011;10958;50.892;3.992;2023-03-03T07:51:21;47.28;;;21.10;;
21591;SDS011;10958;50.892;3.992;2023-03-03T07:54:38;55.65;;;23.30;;
21591;SDS011;10958;50.892;3.992;2023-03-03T07:56:57;41.97;;;21.15;;
21591;SDS011;10958;50.892;3.992;2023-03-03T07:59:37;42.92;;;21.02;;
21591;SDS011;10958;50.892;3.992;2023-03-03T08:02:15;40.05;;;18.55;;
21591;SDS011;10958;50.892;3.992;2023-03-03T08:04:47;36.67;;;16.27;;
21591;SDS011;10958;50.892;3.992;2023-03-03T08:07:16;22.92;;;11.85;;
21591;SDS011;10958;50.892;3.992;2023-03-03T08:10:00;30.85;;;14.48;;
21591;SDS011;10958;50.892;3.992;2023-03-03T08:12:45;31.35;;;14.77;;
21591;SDS011;10958;50.892;3.992;2023-03-03T08:15:19;31.85;;;14.93;;
21591;SDS011;10958;50.892;3.992;2023-03-03T08:17:51;34.47;;;14.82;;
21591;SDS011;10958;50.892;3.992;2023-03-03T08:22:59;23.80;;;11.88;;
21591;SDS011;10958;50.892;3.992;2023-03-03T08:25:25;29.50;;;13.85;;
21591;SDS011;10958;50.892;3.992;2023-03-03T08:27:50;27.73;;;13.10;;
21591;SDS011;10958;50.892;3.992;2023-03-03T08:30:16;28.35;;;13.82;;
21591;SDS011;10958;50.892;3.992;2023-03-03T08:32:42;30.05;;;12.77;;
21591;SDS011;10958;50.892;3.992;2023-03-03T08:35:08;27.70;;;12.93;;
21591;SDS011;10958;50.892;3.992;2023-03-03T08:37:33;28.45;;;13.70;;
21591;SDS011;10958;50.892;3.992;2023-03-03T08:39:59;22.80;;;11.45;;
21591;SDS011;10958;50.892;3.992;2023-03-03T08:42:25;25.80;;;12.75;;
21591;SDS011;10958;50.892;3.992;2023-03-03T08:44:51;25.52;;;12.43;;
21591;SDS011;10958;50.892;3.992;2023-03-03T08:47:20;26.27;;;11.98;;
21591;SDS011;10958;50.892;3.992;2023-03-03T08:49:48;26.83;;;12.60;;
21591;SDS011;10958;50.892;3.992;2023-03-03T08:52:16;25.13;;;13.63;;
21591;SDS011;10958;50.892;3.992;2023-03-03T08:54:48;28.05;;;12.75;;
21591;SDS011;10958;50.892;3.992;2023-03-03T08:57:33;28.75;;;14.23;;
21591;SDS011;10958;50.892;3.992;2023-03-03T09:02:37;29.33;;;13.70;;
21591;SDS011;10958;50.892;3.992;2023-03-03T09:05:03;27.75;;;13.13;;
21591;SDS011;10958;50.892;3.992;2023-03-03T09:07:30;26.45;;;12.25;;
21591;SDS011;10958;50.892;3.992;2023-03-03T09:09:55;25.63;;;12.70;;
21591;SDS011;10958;50.892;3.992;2023-03-03T09:12:30;26.73;;;12.77;;
21591;SDS011;10958;50.892;3.992;2023-03-03T09:14:59;30.38;;;14.25;;
21591;SDS011;10958;50.892;3.992;2023-03-03T09:17:36;24.92;;;13.32;;
21591;SDS011;10958;50.892;3.992;2023-03-03T09:20:45;27.38;;;13.10;;
21591;SDS011;10958;50.892;3.992;2023-03-03T09:22:54;25.25;;;12.07;;
21591;SDS011;10958;50.892;3.992;2023-03-03T09:27:51;29.42;;;12.90;;
21591;SDS011;10958;50.892;3.992;2023-03-03T09:32:50;26.05;;;11.82;;
21591;SDS011;10958;50.892;3.992;2023-03-03T09:35:25;27.58;;;12.73;;
21591;SDS011;10958;50.892;3.992;2023-03-03T09:51:40;27.65;;;13.80;;
21591;SDS011;10958;50.892;3.992;2023-03-03T09:54:31;24.02;;;12.23;;
21591;SDS011;10958;50.892;3.992;2023-03-03T09:57:28;27.55;;;13.05;;
21591;SDS011;10958;50.892;3.992;2023-03-03T10:08:40;31.15;;;14.18;;
21591;SDS011;10958;50.892;3.992;2023-03-03T10:11:24;28.48;;;14.23;;
21591;SDS011;10958;50.892;3.992;2023-03-03T10:14:03;30.13;;;13.88;;
21591;SDS011;10958;50.892;3.992;2023-03-03T10:16:49;31.67;;;14.10;;
21591;SDS011;10958;50.892;3.992;2023-03-03T10:19:26;24.70;;;13.70;;
21591;SDS011;10958;50.892;3.992;2023-03-03T10:38:41;28.40;;;12.70;;
21591;SDS011;10958;50.892;3.992;2023-03-03T10:44:22;26.52;;;12.90;;
21591;SDS011;10958;50.892;3.992;2023-03-03T10:52:19;26.52;;;13.57;;
21591;SDS011;10958;50.892;3.992;2023-03-03T10:55:07;26.63;;;13.18;;
21591;SDS011;10958;50.892;3.992;2023-03-03T10:57:54;21.23;;;10.85;;
21591;SDS011;10958;50.892;3.992;2023-03-03T11:06:30;24.80;;;11.65;;
21591;SDS011;10958;50.892;3.992;2023-03-03T11:12:14;24.15;;;11.93;;
21591;SDS011;10958;50.892;3.992;2023-03-03T11:15:10;23.20;;;11.20;;
21591;SDS011;10958;50.892;3.992;2023-03-03T11:35:00;23.73;;;11.50;;
21591;SDS011;10958;50.892;3.992;2023-03-03T11:43:30;22.83;;;12.80;;
21591;SDS011;10958;50.892;3.992;2023-03-03T11:45:59;25.67;;;12.93;;
21591;SDS011;10958;50.892;3.992;2023-03-03T11:48:38;20.07;;;10.77;;
21591;SDS011;10958;50.892;3.992;2023-03-03T11:51:40;20.77;;;10.65;;
21591;SDS011;10958;50.892;3.992;2023-03-03T11:56:46;17.75;;;10.05;;
21591;SDS011;10958;50.892;3.992;2023-03-03T11:59:24;19.45;;;10.52;;
21591;SDS011;10958;50.892;3.992;2023-03-03T12:01:58;19.02;;;10.30;;
21591;SDS011;10958;50.892;3.992;2023-03-03T12:04:46;16.02;;;9.05;;
21591;SDS011;10958;50.892;3.992;2023-03-03T12:13:04;19.10;;;10.55;;
21591;SDS011;10958;50.892;3.992;2023-03-03T12:15:40;19.05;;;9.52;;
21591;SDS011;10958;50.892;3.992;2023-03-03T12:21:19;22.30;;;11.02;;
21591;SDS011;10958;50.892;3.992;2023-03-03T12:24:03;20.58;;;10.73;;
21591;SDS011;10958;50.892;3.992;2023-03-03T12:26:45;21.20;;;10.60;;
21591;SDS011;10958;50.892;3.992;2023-03-03T12:31:51;21.25;;;12.70;;
21591;SDS011;10958;50.892;3.992;2023-03-03T12:37:25;22.33;;;11.55;;
21591;SDS011;10958;50.892;3.992;2023-03-03T12:42:52;23.67;;;12.77;;
21591;SDS011;10958;50.892;3.992;2023-03-03T12:48:18;20.35;;;10.63;;
21591;SDS011;10958;50.892;3.992;2023-03-03T12:56:05;20.27;;;11.73;;
21591;SDS011;10958;50.892;3.992;2023-03-03T13:04:23;23.95;;;12.38;;
21591;SDS011;10958;50.892;3.992;2023-03-03T13:06:54;23.98;;;11.32;;
21591;SDS011;10958;50.892;3.992;2023-03-03T13:10:17;22.00;;;11.10;;
21591;SDS011;10958;50.892;3.992;2023-03-03T13:12:34;20.00;;;10.48;;
21591;SDS011;10958;50.892;3.992;2023-03-03T13:15:04;19.33;;;9.73;;
21591;SDS011;10958;50.892;3.992;2023-03-03T13:20:28;16.75;;;8.93;;
21591;SDS011;10958;50.892;3.992;2023-03-03T13:26:16;18.67;;;9.85;;
21591;SDS011;10958;50.892;3.992;2023-03-03T13:29:00;15.35;;;8.82;;
21591;SDS011;10958;50.892;3.992;2023-03-03T13:31:40;15.43;;;7.38;;
21591;SDS011;10958;50.892;3.992;2023-03-03T13:37:28;14.73;;;8.93;;
21591;SDS011;10958;50.892;3.992;2023-03-03T13:42:43;17.30;;;9.40;;
21591;SDS011;10958;50.892;3.992;2023-03-03T14:05:35;14.40;;;8.25;;
21591;SDS011;10958;50.892;3.992;2023-03-03T14:11:08;15.98;;;9.27;;
21591;SDS011;10958;50.892;3.992;2023-03-03T14:14:00;17.75;;;10.02;;
21591;SDS011;10958;50.892;3.992;2023-03-03T14:17:01;19.73;;;9.95;;
21591;SDS011;10958;50.892;3.992;2023-03-03T14:19:56;17.08;;;9.80;;
21591;SDS011;10958;50.892;3.992;2023-03-03T14:22:48;16.20;;;9.73;;
21591;SDS011;10958;50.892;3.992;2023-03-03T14:25:15;15.35;;;9.32;;
21591;SDS011;10958;50.892;3.992;2023-03-03T14:33:14;16.98;;;11.23;;
21591;SDS011;10958;50.892;3.992;2023-03-03T14:35:50;13.20;;;8.73;;
21591;SDS011;10958;50.892;3.992;2023-03-03T14:38:17;17.08;;;10.32;;
21591;SDS011;10958;50.892;3.992;2023-03-03T14:40:45;17.67;;;10.35;;
21591;SDS011;10958;50.892;3.992;2023-03-03T14:43:25;17.30;;;9.18;;
21591;SDS011;10958;50.892;3.992;2023-03-03T14:46:35;16.88;;;10.30;;
21591;SDS011;10958;50.892;3.992;2023-03-03T14:49:42;15.00;;;9.52;;
21591;SDS011;10958;50.892;3.992;2023-03-03T14:55:01;15.85;;;8.88;;
21591;SDS011;10958;50.892;3.992;2023-03-03T14:57:50;14.93;;;8.57;;
21591;SDS011;10958;50.892;3.992;2023-03-03T15:05:29;19.25;;;8.98;;
21591;SDS011;10958;50.892;3.992;2023-03-03T15:10:35;14.27;;;8.88;;
21591;SDS011;10958;50.892;3.992;2023-03-03T15:15:50;16.05;;;8.60;;
21591;SDS011;10958;50.892;3.992;2023-03-03T15:18:18;12.60;;;8.85;;
21591;SDS011;10958;50.892;3.992;2023-03-03T15:20:51;13.07;;;8.40;;
21591;SDS011;10958;50.892;3.992;2023-03-03T15:32:19;18.45;;;9.48;;
21591;SDS011;10958;50.892;3.992;2023-03-03T15:34:50;14.13;;;10.38;;
21591;SDS011;10958;50.892;3.992;2023-03-03T15:51:38;16.67;;;10.07;;
21591;SDS011;10958;50.892;3.992;2023-03-03T15:57:13;13.52;;;9.75;;
21591;SDS011;10958;50.892;3.992;2023-03-03T16:02:27;16.13;;;10.95;;
21591;SDS011;10958;50.892;3.992;2023-03-03T16:05:14;17.02;;;10.15;;
21591;SDS011;10958;50.892;3.992;2023-03-03T16:16:16;21.75;;;11.13;;
21591;SDS011;10958;50.892;3.992;2023-03-03T16:19:05;15.05;;;10.27;;
21591;SDS011;10958;50.892;3.992;2023-03-03T16:27:20;15.38;;;9.18;;
21591;SDS011;10958;50.892;3.992;2023-03-03T16:30:02;13.65;;;8.52;;
21591;SDS011;10958;50.892;3.992;2023-03-03T16:41:49;17.35;;;9.05;;
21591;SDS011;10958;50.892;3.992;2023-03-03T16:44:33;15.52;;;9.77;;
21591;SDS011;10958;50.892;3.992;2023-03-03T16:47:27;13.93;;;9.68;;
21591;SDS011;10958;50.892;3.992;2023-03-03T16:52:58;14.48;;;10.63;;
21591;SDS011;10958;50.892;3.992;2023-03-03T17:06:33;15.35;;;10.00;;
21591;SDS011;10958;50.892;3.992;2023-03-03T17:17:27;14.60;;;10.20;;
21591;SDS011;10958;50.892;3.992;2023-03-03T17:25:52;15.25;;;9.23;;
21591;SDS011;10958;50.892;3.992;2023-03-03T17:36:44;17.13;;;12.02;;
21591;SDS011;10958;50.892;3.992;2023-03-03T17:39:44;17.02;;;10.73;;
21591;SDS011;10958;50.892;3.992;2023-03-03T17:45:15;16.60;;;11.70;;
21591;SDS011;10958;50.892;3.992;2023-03-03T17:47:46;20.08;;;10.95;;
21591;SDS011;10958;50.892;3.992;2023-03-03T17:59:09;11.57;;;7.90;;
21591;SDS011;10958;50.892;3.992;2023-03-03T18:04:55;12.48;;;7.35;;
21591;SDS011;10958;50.892;3.992;2023-03-03T18:11:06;15.70;;;9.20;;
21591;SDS011;10958;50.892;3.992;2023-03-03T18:16:14;9.88;;;6.95;;
21591;SDS011;10958;50.892;3.992;2023-03-03T18:26:53;11.88;;;5.57;;
21591;SDS011;10958;50.892;3.992;2023-03-03T18:29:21;11.13;;;6.32;;
21591;SDS011;10958;50.892;3.992;2023-03-03T18:36:56;11.57;;;5.63;;
21591;SDS011;10958;50.892;3.992;2023-03-03T18:44:43;10.18;;;5.05;;
21591;SDS011;10958;50.892;3.992;2023-03-03T18:47:11;9.67;;;5.50;;
21591;SDS011;10958;50.892;3.992;2023-03-03T18:55:41;9.27;;;5.47;;
21591;SDS011;10958;50.892;3.992;2023-03-03T19:00:44;9.50;;;6.95;;
21591;SDS011;10958;50.892;3.992;2023-03-03T19:03:24;8.68;;;6.28;;
21591;SDS011;10958;50.892;3.992;2023-03-03T19:05:53;10.55;;;6.90;;
21591;SDS011;10958;50.892;3.992;2023-03-03T19:08:29;12.35;;;6.40;;
21591;SDS011;10958;50.892;3.992;2023-03-03T19:20:00;11.15;;;8.40;;
21591;SDS011;10958;50.892;3.992;2023-03-03T19:22:44;12.88;;;7.28;;
21591;SDS011;10958;50.892;3.992;2023-03-03T19:28:35;11.75;;;7.90;;
21591;SDS011;10958;50.892;3.992;2023-03-03T19:36:01;9.80;;;7.72;;
21591;SDS011;10958;50.892;3.992;2023-03-03T19:41:19;11.55;;;8.30;;
21591;SDS011;10958;50.892;3.992;2023-03-03T19:49:21;12.18;;;8.10;;
21591;SDS011;10958;50.892;3.992;2023-03-03T20:02:54;18.23;;;9.30;;
21591;SDS011;10958;50.892;3.992;2023-03-03T20:05:31;14.90;;;8.32;;
21591;SDS011;10958;50.892;3.992;2023-03-03T20:08:23;9.95;;;7.80;;
21591;SDS011;10958;50.892;3.992;2023-03-03T20:11:37;12.23;;;7.32;;
21591;SDS011;10958;50.892;3.992;2023-03-03T20:16:35;11.13;;;7.38;;
21591;SDS011;10958;50.892;3.992;2023-03-03T20:24:49;9.48;;;6.60;;
21591;SDS011;10958;50.892;3.992;2023-03-03T20:27:22;8.43;;;6.53;;
21591;SDS011;10958;50.892;3.992;2023-03-03T20:31:04;10.40;;;7.25;;
21591;SDS011;10958;50.892;3.992;2023-03-03T20:33:13;10.73;;;6.72;;
21591;SDS011;10958;50.892;3.992;2023-03-03T20:36:41;8.35;;;6.75;;
21591;SDS011;10958;50.892;3.992;2023-03-03T21:00:42;15.43;;;9.25;;
21591;SDS011;10958;50.892;3.992;2023-03-03T21:03:41;14.55;;;8.68;;
21591;SDS011;10958;50.892;3.992;2023-03-03T21:06:13;12.82;;;9.90;;
21591;SDS011;10958;50.892;3.992;2023-03-03T21:08:48;15.68;;;10.60;;
21591;SDS011;10958;50.892;3.992;2023-03-03T21:11:20;15.95;;;11.23;;
21591;SDS011;10958;50.892;3.992;2023-03-03T21:13:56;13.98;;;11.13;;
21591;SDS011;10958;50.892;3.992;2023-03-03T21:18:55;16.92;;;11.77;;
21591;SDS011;10958;50.892;3.992;2023-03-03T21:21:23;17.98;;;13.05;;
21591;SDS011;10958;50.892;3.992;2023-03-03T21:23:50;15.18;;;11.80;;
21591;SDS011;10958;50.892;3.992;2023-03-03T21:26:43;17.35;;;12.73;;
21591;SDS011;10958;50.892;3.992;2023-03-03T21:29:18;16.80;;;12.45;;
21591;SDS011;10958;50.892;3.992;2023-03-03T21:31:45;19.42;;;12.85;;
21591;SDS011;10958;50.892;3.992;2023-03-03T21:34:22;20.23;;;13.88;;
21591;SDS011;10958;50.892;3.992;2023-03-03T21:36:56;16.23;;;13.10;;
21591;SDS011;10958;50.892;3.992;2023-03-03T21:39:25;18.65;;;13.25;;